sensor_id;sensor_type;location;lat;lon;timestamp;pressure;altitude;pressure_sealevel;temperature;humidity
71457;BME280;59263;48.160;11.752;2023-08-31T00:01:46;95475.97;;;12.53;100.00
71457;BME280;59263;48.160;11.752;2023-08-31T00:04:13;95471.47;;;12.39;100.00
71457;BME280;59263;48.160;11.752;2023-08-31T00:06:42;95471.78;;;12.52;100.00
71457;BME280;59263;48.160;11.752;2023-08-31T00:09:10;95478.59;;;12.53;100.00
71457;BME280;59263;48.160;11.752;2023-08-31T00:11:36;95467.88;;;12.48;100.00
71457;BME280;59263;48.160;11.752;2023-08-31T00:14:01;95476.16;;;12.59;100.00
71457;BME280;59263;48.160;11.752;2023-08-31T00:16:26;95469.81;;;12.46;100.00
71457;BME280;59263;48.160;11.752;2023-08-31T00:18:52;95476.34;;;12.50;100.00
71457;BME280;59263;48.160;11.752;2023-08-31T00:21:18;95487.84;;;12.39;100.00
71457;BME280;59263;48.160;11.752;2023-08-31T00:23:43;95478.91;;;12.33;100.00
71457;BME280;59263;48.160;11.752;2023-08-31T00:26:08;95467.72;;;12.33;100.00
71457;BME280;59263;48.160;11.752;2023-08-31T00:28:34;95483.78;;;12.37;100.00
71457;BME280;59263;48.160;11.752;2023-08-31T00:31:03;95496.09;;;12.26;100.00
71457;BME280;59263;48.160;11.752;2023-08-31T00:33:28;95492.53;;;12.19;100.00
71457;BME280;59263;48.160;11.752;2023-08-31T00:35:54;95496.41;;;12.23;100.00
71457;BME280;59263;48.160;11.752;2023-08-31T00:38:21;95489.97;;;12.27;100.00
71457;BME280;59263;48.160;11.752;2023-08-31T00:40:46;95507.47;;;12.25;100.00
71457;BME280;59263;48.160;11.752;2023-08-31T00:43:15;95500.31;;;12.19;100.00
71457;BME280;59263;48.160;11.752;2023-08-31T00:45:40;95506.78;;;12.15;100.00
71457;BME280;59263;48.160;11.752;2023-08-31T00:48:06;95509.38;;;12.07;100.00
71457;BME280;59263;48.160;11.752;2023-08-31T00:50:32;95505.50;;;12.11;100.00
71457;BME280;59263;48.160;11.752;2023-08-31T00:52:57;95509.69;;;12.12;100.00
71457;BME280;59263;48.160;11.752;2023-08-31T00:55:23;95499.69;;;12.17;100.00
71457;BME280;59263;48.160;11.752;2023-08-31T00:57:49;95503.22;;;12.08;100.00
71457;BME280;59263;48.160;11.752;2023-08-31T01:00:14;95501.28;;;12.02;100.00
71457;BME280;59263;48.160;11.752;2023-08-31T01:02:51;95496.41;;;12.07;100.00
71457;BME280;59263;48.160;11.752;2023-08-31T01:05:29;95495.75;;;12.05;100.00
71457;BME280;59263;48.160;11.752;2023-08-31T01:13:24;95485.31;;;11.72;100.00
71457;BME280;59263;48.160;11.752;2023-08-31T01:15:56;95501.50;;;11.82;100.00
71457;BME280;59263;48.160;11.752;2023-08-31T01:18:25;95513.56;;;11.83;100.00
71457;BME280;59263;48.160;11.752;2023-08-31T01:21:02;95504.28;;;11.81;100.00
71457;BME280;59263;48.160;11.752;2023-08-31T01:24:01;95502.34;;;11.83;100.00
71457;BME280;59263;48.160;11.752;2023-08-31T01:26:26;95511.59;;;11.85;100.00
71457;BME280;59263;48.160;11.752;2023-08-31T01:28:54;95509.44;;;11.81;100.00
71457;BME280;59263;48.160;11.752;2023-08-31T01:31:20;95500.91;;;11.89;100.00
71457;BME280;59263;48.160;11.752;2023-08-31T01:33:46;95490.53;;;11.89;100.00
71457;BME280;59263;48.160;11.752;2023-08-31T01:36:17;95492.50;;;11.95;100.00
71457;BME280;59263;48.160;11.752;2023-08-31T01:38:48;95484.75;;;12.03;100.00
71457;BME280;59263;48.160;11.752;2023-08-31T01:41:17;95488.13;;;12.03;100.00
71457;BME280;59263;48.160;11.752;2023-08-31T01:43:45;95500.44;;;12.01;100.00
71457;BME280;59263;48.160;11.752;2023-08-31T01:46:12;95493.81;;;12.07;100.00
71457;BME280;59263;48.160;11.752;2023-08-31T01:48:41;95490.91;;;12.02;100.00
71457;BME280;59263;48.160;11.752;2023-08-31T01:51:10;95494.78;;;12.06;100.00
71457;BME280;59263;48.160;11.752;2023-08-31T01:53:35;95485.38;;;12.05;100.00
71457;BME280;59263;48.160;11.752;2023-08-31T01:56:01;95489.94;;;12.11;100.00
71457;BME280;59263;48.160;11.752;2023-08-31T01:58:26;95495.78;;;12.21;100.00
71457;BME280;59263;48.160;11.752;2023-08-31T02:00:51;95495.78;;;12.29;100.00
71457;BME280;59263;48.160;11.752;2023-08-31T02:03:16;95495.47;;;12.24;100.00
71457;BME280;59263;48.160;11.752;2023-08-31T02:05:42;95498.88;;;12.17;100.00
71457;BME280;59263;48.160;11.752;2023-08-31T02:08:07;95509.19;;;12.08;100.00
71457;BME280;59263;48.160;11.752;2023-08-31T02:10:32;95508.72;;;12.05;100.00
71457;BME280;59263;48.160;11.752;2023-08-31T02:12:58;95511.00;;;12.08;100.00
71457;BME280;59263;48.160;11.752;2023-08-31T02:15:24;95513.88;;;11.97;100.00
71457;BME280;59263;48.160;11.752;2023-08-31T02:17:49;95515.84;;;11.95;100.00
71457;BME280;59263;48.160;11.752;2023-08-31T02:20:14;95533.19;;;11.94;100.00
71457;BME280;59263;48.160;11.752;2023-08-31T02:22:40;95533.69;;;11.98;100.00
71457;BME280;59263;48.160;11.752;2023-08-31T02:25:05;95540.13;;;11.94;100.00
71457;BME280;59263;48.160;11.752;2023-08-31T02:27:31;95554.88;;;11.93;100.00
71457;BME280;59263;48.160;11.752;2023-08-31T02:29:56;95557.50;;;12.01;100.00
71457;BME280;59263;48.160;11.752;2023-08-31T02:32:22;95554.25;;;11.99;100.00
71457;BME280;59263;48.160;11.752;2023-08-31T02:34:47;95566.22;;;11.92;100.00
71457;BME280;59263;48.160;11.752;2023-08-31T02:37:12;95564.75;;;11.90;100.00
71457;BME280;59263;48.160;11.752;2023-08-31T02:39:38;95568.69;;;12.02;100.00
71457;BME280;59263;48.160;11.752;2023-08-31T02:42:05;95554.06;;;11.93;100.00
71457;BME280;59263;48.160;11.752;2023-08-31T02:44:31;95570.63;;;12.00;100.00
71457;BME280;59263;48.160;11.752;2023-08-31T02:46:56;95589.78;;;12.07;100.00
71457;BME280;59263;48.160;11.752;2023-08-31T02:49:21;95596.25;;;12.11;100.00
71457;BME280;59263;48.160;11.752;2023-08-31T02:51:47;95571.44;;;12.00;100.00
71457;BME280;59263;48.160;11.752;2023-08-31T02:54:14;95589.94;;;12.05;100.00
71457;BME280;59263;48.160;11.752;2023-08-31T02:56:39;95608.88;;;11.98;100.00
71457;BME280;59263;48.160;11.752;2023-08-31T02:59:04;95607.88;;;11.91;100.00
71457;BME280;59263;48.160;11.752;2023-08-31T03:01:30;95597.16;;;11.85;100.00
71457;BME280;59263;48.160;11.752;2023-08-31T03:03:55;95596.78;;;11.80;100.00
71457;BME280;59263;48.160;11.752;2023-08-31T03:06:20;95591.09;;;11.77;100.00
71457;BME280;59263;48.160;11.752;2023-08-31T03:08:45;95599.50;;;11.79;100.00
71457;BME280;59263;48.160;11.752;2023-08-31T03:11:11;95600.16;;;11.73;100.00
71457;BME280;59263;48.160;11.752;2023-08-31T03:13:39;95582.78;;;11.65;100.00
71457;BME280;59263;48.160;11.752;2023-08-31T03:16:04;95605.03;;;11.76;100.00
71457;BME280;59263;48.160;11.752;2023-08-31T03:18:29;95587.03;;;11.74;100.00
71457;BME280;59263;48.160;11.752;2023-08-31T03:20:55;95592.84;;;11.68;100.00
71457;BME280;59263;48.160;11.752;2023-08-31T03:23:21;95594.47;;;11.69;100.00
71457;BME280;59263;48.160;11.752;2023-08-31T03:25:46;95589.59;;;11.66;100.00
71457;BME280;59263;48.160;11.752;2023-08-31T03:28:12;95599.28;;;11.64;100.00
71457;BME280;59263;48.160;11.752;2023-08-31T03:30:38;95597.66;;;11.63;100.00
71457;BME280;59263;48.160;11.752;2023-08-31T03:33:03;95596.38;;;11.67;100.00
71457;BME280;59263;48.160;11.752;2023-08-31T03:35:31;95597.69;;;11.71;100.00
71457;BME280;59263;48.160;11.752;2023-08-31T03:37:56;95595.47;;;11.76;100.00
71457;BME280;59263;48.160;11.752;2023-08-31T03:40:22;95600.97;;;11.73;100.00
71457;BME280;59263;48.160;11.752;2023-08-31T03:42:50;95599.34;;;11.72;100.00
71457;BME280;59263;48.160;11.752;2023-08-31T03:45:16;95609.72;;;11.72;100.00
71457;BME280;59263;48.160;11.752;2023-08-31T03:47:41;95594.28;;;11.62;100.00
71457;BME280;59263;48.160;11.752;2023-08-31T03:50:07;95605.84;;;11.76;100.00
71457;BME280;59263;48.160;11.752;2023-08-31T03:52:33;95607.47;;;11.77;100.00
71457;BME280;59263;48.160;11.752;2023-08-31T03:54:58;95616.94;;;11.86;100.00
71457;BME280;59263;48.160;11.752;2023-08-31T03:57:23;95613.81;;;11.83;100.00
71457;BME280;59263;48.160;11.752;2023-08-31T03:59:49;95626.97;;;11.90;100.00
71457;BME280;59263;48.160;11.752;2023-08-31T04:02:14;95625.06;;;11.92;100.00
71457;BME280;59263;48.160;11.752;2023-08-31T04:04:40;95620.75;;;11.82;100.00
71457;BME280;59263;48.160;11.752;2023-08-31T04:07:05;95622.59;;;11.90;100.00
71457;BME280;59263;48.160;11.752;2023-08-31T04:09:31;95628.28;;;11.94;100.00
71457;BME280;59263;48.160;11.752;2023-08-31T04:11:56;95628.28;;;11.94;100.00
71457;BME280;59263;48.160;11.752;2023-08-31T04:14:22;95627.34;;;11.95;100.00
71457;BME280;59263;48.160;11.752;2023-08-31T04:16:47;95630.56;;;11.97;100.00
71457;BME280;59263;48.160;11.752;2023-08-31T04:19:15;95624.06;;;11.84;100.00
71457;BME280;59263;48.160;11.752;2023-08-31T04:21:40;95629.94;;;11.95;100.00
71457;BME280;59263;48.160;11.752;2023-08-31T04:24:06;95638.34;;;11.97;100.00
71457;BME280;59263;48.160;11.752;2023-08-31T04:26:31;95633.66;;;11.92;100.00
71457;BME280;59263;48.160;11.752;2023-08-31T04:28:56;95650.72;;;12.03;100.00
71457;BME280;59263;48.160;11.752;2023-08-31T04:31:22;95647.09;;;11.96;100.00
71457;BME280;59263;48.160;11.752;2023-08-31T04:33:47;95662.38;;;11.99;100.00
71457;BME280;59263;48.160;11.752;2023-08-31T04:36:13;95671.44;;;12.03;100.00
71457;BME280;59263;48.160;11.752;2023-08-31T04:38:38;95650.00;;;11.93;100.00
71457;BME280;59263;48.160;11.752;2023-08-31T04:41:04;95673.03;;;11.96;100.00
71457;BME280;59263;48.160;11.752;2023-08-31T04:43:29;95664.59;;;11.94;100.00
71457;BME280;59263;48.160;11.752;2023-08-31T04:45:55;95663.97;;;12.00;100.00
71457;BME280;59263;48.160;11.752;2023-08-31T04:48:20;95670.13;;;11.99;100.00
71457;BME280;59263;48.160;11.752;2023-08-31T04:50:46;95675.97;;;12.01;100.00
71457;BME280;59263;48.160;11.752;2023-08-31T04:53:11;95685.34;;;11.94;100.00
71457;BME280;59263;48.160;11.752;2023-08-31T04:55:37;95691.22;;;12.04;100.00
71457;BME280;59263;48.160;11.752;2023-08-31T04:58:05;95686.69;;;11.98;100.00
71457;BME280;59263;48.160;11.752;2023-08-31T05:00:31;95698.00;;;11.97;100.00
71457;BME280;59263;48.160;11.752;2023-08-31T05:02:57;95688.31;;;12.07;100.00
71457;BME280;59263;48.160;11.752;2023-08-31T05:05:22;95698.03;;;12.05;100.00
71457;BME280;59263;48.160;11.752;2023-08-31T05:07:47;95682.44;;;11.97;100.00
71457;BME280;59263;48.160;11.752;2023-08-31T05:10:13;95682.47;;;12.05;100.00
71457;BME280;59263;48.160;11.752;2023-08-31T05:12:38;95692.53;;;12.08;100.00
71457;BME280;59263;48.160;11.752;2023-08-31T05:15:04;95690.91;;;12.07;100.00
71457;BME280;59263;48.160;11.752;2023-08-31T05:17:30;95697.22;;;12.04;100.00
71457;BME280;59263;48.160;11.752;2023-08-31T05:19:56;95699.03;;;12.12;100.00
71457;BME280;59263;48.160;11.752;2023-08-31T05:22:21;95700.69;;;12.13;100.00
71457;BME280;59263;48.160;11.752;2023-08-31T05:24:47;95698.44;;;12.18;100.00
71457;BME280;59263;48.160;11.752;2023-08-31T05:27:12;95698.13;;;12.21;100.00
71457;BME280;59263;48.160;11.752;2023-08-31T05:29:38;95713.06;;;12.27;100.00
71457;BME280;59263;48.160;11.752;2023-08-31T05:32:03;95699.53;;;12.16;100.00
71457;BME280;59263;48.160;11.752;2023-08-31T05:34:29;95705.22;;;12.19;100.00
71457;BME280;59263;48.160;11.752;2023-08-31T05:36:55;95713.38;;;12.24;100.00
71457;BME280;59263;48.160;11.752;2023-08-31T05:39:21;95726.78;;;12.20;100.00
71457;BME280;59263;48.160;11.752;2023-08-31T05:41:47;95721.00;;;12.26;100.00
71457;BME280;59263;48.160;11.752;2023-08-31T05:44:12;95723.75;;;12.24;100.00
71457;BME280;59263;48.160;11.752;2023-08-31T05:46:37;95721.81;;;12.26;100.00
71457;BME280;59263;48.160;11.752;2023-08-31T05:49:04;95711.13;;;12.29;100.00
71457;BME280;59263;48.160;11.752;2023-08-31T05:51:29;95724.75;;;12.31;100.00
71457;BME280;59263;48.160;11.752;2023-08-31T05:53:55;95732.88;;;12.37;100.00
71457;BME280;59263;48.160;11.752;2023-08-31T05:56:20;95728.69;;;12.44;100.00
71457;BME280;59263;48.160;11.752;2023-08-31T05:58:45;95720.88;;;12.35;100.00
71457;BME280;59263;48.160;11.752;2023-08-31T06:01:12;95717.31;;;12.37;100.00
71457;BME280;59263;48.160;11.752;2023-08-31T06:03:38;95732.25;;;12.43;100.00
71457;BME280;59263;48.160;11.752;2023-08-31T06:06:03;95727.06;;;12.43;100.00
71457;BME280;59263;48.160;11.752;2023-08-31T06:08:29;95730.63;;;12.42;100.00
71457;BME280;59263;48.160;11.752;2023-08-31T06:10:56;95732.56;;;12.40;100.00
71457;BME280;59263;48.160;11.752;2023-08-31T06:13:21;95728.69;;;12.44;100.00
71457;BME280;59263;48.160;11.752;2023-08-31T06:15:47;95741.34;;;12.39;100.00
71457;BME280;59263;48.160;11.752;2023-08-31T06:18:12;95743.16;;;12.46;100.00
71457;BME280;59263;48.160;11.752;2023-08-31T06:20:37;95749.16;;;12.47;100.00
71457;BME280;59263;48.160;11.752;2023-08-31T06:23:03;95740.06;;;12.51;100.00
71457;BME280;59263;48.160;11.752;2023-08-31T06:25:29;95754.53;;;12.53;100.00
71457;BME280;59263;48.160;11.752;2023-08-31T06:27:54;95748.84;;;12.58;100.00
71457;BME280;59263;48.160;11.752;2023-08-31T06:30:19;95766.38;;;12.64;100.00
71457;BME280;59263;48.160;11.752;2023-08-31T06:32:46;95759.56;;;12.63;100.00
71457;BME280;59263;48.160;11.752;2023-08-31T06:35:12;95759.00;;;12.86;100.00
71457;BME280;59263;48.160;11.752;2023-08-31T06:37:38;95764.50;;;12.82;100.00
71457;BME280;59263;48.160;11.752;2023-08-31T06:40:06;95765.34;;;12.83;100.00
71457;BME280;59263;48.160;11.752;2023-08-31T06:42:31;95775.88;;;12.90;100.00
71457;BME280;59263;48.160;11.752;2023-08-31T06:44:57;95776.88;;;12.97;100.00
71457;BME280;59263;48.160;11.752;2023-08-31T06:47:22;95767.28;;;12.97;100.00
71457;BME280;59263;48.160;11.752;2023-08-31T06:49:48;95758.00;;;12.87;100.00
71457;BME280;59263;48.160;11.752;2023-08-31T06:52:13;95772.66;;;12.96;100.00
71457;BME280;59263;48.160;11.752;2023-08-31T06:54:38;95774.47;;;13.03;100.00
71457;BME280;59263;48.160;11.752;2023-08-31T06:57:04;95762.94;;;12.98;100.00
71457;BME280;59263;48.160;11.752;2023-08-31T06:59:29;95763.75;;;12.98;100.00
71457;BME280;59263;48.160;11.752;2023-08-31T07:01:54;95765.53;;;12.98;100.00
71457;BME280;59263;48.160;11.752;2023-08-31T07:04:20;95768.13;;;12.98;100.00
71457;BME280;59263;48.160;11.752;2023-08-31T07:06:45;95779.16;;;13.00;100.00
71457;BME280;59263;48.160;11.752;2023-08-31T07:09:10;95773.34;;;13.14;100.00
71457;BME280;59263;48.160;11.752;2023-08-31T07:11:35;95773.47;;;13.04;100.00
71457;BME280;59263;48.160;11.752;2023-08-31T07:14:01;95786.97;;;13.08;100.00
71457;BME280;59263;48.160;11.752;2023-08-31T07:16:26;95776.94;;;13.13;100.00
71457;BME280;59263;48.160;11.752;2023-08-31T07:18:52;95798.34;;;13.07;100.00
71457;BME280;59263;48.160;11.752;2023-08-31T07:21:17;95789.38;;;13.01;100.00
71457;BME280;59263;48.160;11.752;2023-08-31T07:23:42;95795.72;;;12.99;100.00
71457;BME280;59263;48.160;11.752;2023-08-31T07:26:08;95786.16;;;12.99;100.00
71457;BME280;59263;48.160;11.752;2023-08-31T07:28:33;95792.66;;;13.03;100.00
71457;BME280;59263;48.160;11.752;2023-08-31T07:31:02;95795.06;;;13.05;100.00
71457;BME280;59263;48.160;11.752;2023-08-31T07:33:29;95799.66;;;13.11;100.00
71457;BME280;59263;48.160;11.752;2023-08-31T07:35:56;95807.75;;;13.16;100.00
71457;BME280;59263;48.160;11.752;2023-08-31T07:38:21;95804.91;;;13.27;100.00
71457;BME280;59263;48.160;11.752;2023-08-31T07:40:46;95806.38;;;13.38;100.00
71457;BME280;59263;48.160;11.752;2023-08-31T07:43:11;95797.63;;;13.64;100.00
71457;BME280;59263;48.160;11.752;2023-08-31T07:45:37;95791.63;;;13.63;100.00
71457;BME280;59263;48.160;11.752;2023-08-31T07:48:02;95818.59;;;13.62;100.00
71457;BME280;59263;48.160;11.752;2023-08-31T07:50:28;95814.69;;;13.66;100.00
71457;BME280;59263;48.160;11.752;2023-08-31T07:52:53;95816.16;;;13.77;100.00
71457;BME280;59263;48.160;11.752;2023-08-31T07:55:18;95804.28;;;13.83;100.00
71457;BME280;59263;48.160;11.752;2023-08-31T07:57:44;95809.16;;;13.86;100.00
71457;BME280;59263;48.160;11.752;2023-08-31T08:00:09;95792.91;;;13.75;100.00
71457;BME280;59263;48.160;11.752;2023-08-31T08:02:34;95813.38;;;13.78;100.00
71457;BME280;59263;48.160;11.752;2023-08-31T08:05:00;95801.03;;;13.80;100.00
71457;BME280;59263;48.160;11.752;2023-08-31T08:07:25;95789.34;;;13.85;100.00
71457;BME280;59263;48.160;11.752;2023-08-31T08:09:50;95790.94;;;13.86;100.00
71457;BME280;59263;48.160;11.752;2023-08-31T08:12:16;95788.66;;;13.83;100.00
71457;BME280;59263;48.160;11.752;2023-08-31T08:14:41;95792.41;;;14.13;100.00
71457;BME280;59263;48.160;11.752;2023-08-31T08:17:06;95786.00;;;14.32;100.00
71457;BME280;59263;48.160;11.752;2023-08-31T08:19:31;95789.88;;;14.44;100.00
71457;BME280;59263;48.160;11.752;2023-08-31T08:21:57;95802.19;;;14.66;100.00
71457;BME280;59263;48.160;11.752;2023-08-31T08:24:22;95790.34;;;14.95;100.00
71457;BME280;59263;48.160;11.752;2023-08-31T08:26:47;95781.34;;;15.06;100.00
71457;BME280;59263;48.160;11.752;2023-08-31T08:29:13;95791.66;;;15.22;100.00
71457;BME280;59263;48.160;11.752;2023-08-31T08:31:38;95786.78;;;15.19;100.00
71457;BME280;59263;48.160;11.752;2023-08-31T08:34:03;95794.84;;;15.09;100.00
71457;BME280;59263;48.160;11.752;2023-08-31T08:36:29;95808.56;;;15.03;100.00
71457;BME280;59263;48.160;11.752;2023-08-31T08:38:54;95817.00;;;15.05;100.00
71457;BME280;59263;48.160;11.752;2023-08-31T08:41:23;95827.16;;;14.92;100.00
71457;BME280;59263;48.160;11.752;2023-08-31T08:43:48;95807.56;;;14.73;100.00
71457;BME280;59263;48.160;11.752;2023-08-31T08:46:15;95806.59;;;14.66;100.00
71457;BME280;59263;48.160;11.752;2023-08-31T08:48:41;95788.56;;;14.48;100.00
71457;BME280;59263;48.160;11.752;2023-08-31T08:51:07;95814.25;;;14.59;100.00
71457;BME280;59263;48.160;11.752;2023-08-31T08:53:33;95785.53;;;14.75;100.00
71457;BME280;59263;48.160;11.752;2023-08-31T08:55:58;95789.75;;;14.85;100.00
71457;BME280;59263;48.160;11.752;2023-08-31T08:58:24;95801.44;;;14.89;100.00
71457;BME280;59263;48.160;11.752;2023-08-31T09:00:50;95799.84;;;14.88;100.00
71457;BME280;59263;48.160;11.752;2023-08-31T09:03:16;95793.50;;;14.82;100.00
71457;BME280;59263;48.160;11.752;2023-08-31T09:05:42;95803.75;;;14.84;100.00
71457;BME280;59263;48.160;11.752;2023-08-31T09:08:09;95804.09;;;14.81;100.00
71457;BME280;59263;48.160;11.752;2023-08-31T09:10:45;95799.41;;;14.68;100.00
71457;BME280;59263;48.160;11.752;2023-08-31T09:13:14;95822.63;;;14.86;100.00
71457;BME280;59263;48.160;11.752;2023-08-31T09:18:16;95814.78;;;14.94;100.00
71457;BME280;59263;48.160;11.752;2023-08-31T09:20:47;95809.44;;;14.87;100.00
71457;BME280;59263;48.160;11.752;2023-08-31T09:23:14;95802.97;;;14.83;100.00
71457;BME280;59263;48.160;11.752;2023-08-31T09:25:43;95809.97;;;14.74;100.00
71457;BME280;59263;48.160;11.752;2023-08-31T09:28:11;95813.91;;;14.70;100.00
71457;BME280;59263;48.160;11.752;2023-08-31T09:30:37;95826.59;;;14.73;100.00
71457;BME280;59263;48.160;11.752;2023-08-31T09:33:20;95824.72;;;14.51;100.00
71457;BME280;59263;48.160;11.752;2023-08-31T09:38:14;95818.63;;;14.67;100.00
71457;BME280;59263;48.160;11.752;2023-08-31T09:40:40;95804.25;;;14.87;100.00
71457;BME280;59263;48.160;11.752;2023-08-31T09:43:05;95803.41;;;14.87;100.00
71457;BME280;59263;48.160;11.752;2023-08-31T09:45:32;95796.50;;;15.02;100.00
71457;BME280;59263;48.160;11.752;2023-08-31T09:48:02;95804.09;;;15.43;100.00
71457;BME280;59263;48.160;11.752;2023-08-31T09:50:29;95786.81;;;15.88;100.00
71457;BME280;59263;48.160;11.752;2023-08-31T09:52:55;95766.44;;;16.21;100.00
71457;BME280;59263;48.160;11.752;2023-08-31T09:55:25;95763.38;;;16.32;100.00
71457;BME280;59263;48.160;11.752;2023-08-31T09:57:56;95761.72;;;16.31;100.00
71457;BME280;59263;48.160;11.752;2023-08-31T10:00:22;95770.66;;;16.37;100.00
71457;BME280;59263;48.160;11.752;2023-08-31T10:02:48;95757.25;;;16.25;100.00
71457;BME280;59263;48.160;11.752;2023-08-31T10:05:15;95768.59;;;16.32;100.00
71457;BME280;59263;48.160;11.752;2023-08-31T10:07:41;95754.97;;;16.07;100.00
71457;BME280;59263;48.160;11.752;2023-08-31T10:10:08;95764.41;;;15.93;100.00
71457;BME280;59263;48.160;11.752;2023-08-31T10:12:35;95764.19;;;15.57;100.00
71457;BME280;59263;48.160;11.752;2023-08-31T10:15:01;95773.06;;;15.48;100.00
71457;BME280;59263;48.160;11.752;2023-08-31T10:17:27;95770.53;;;15.40;100.00
71457;BME280;59263;48.160;11.752;2023-08-31T10:19:54;95776.63;;;15.32;100.00
71457;BME280;59263;48.160;11.752;2023-08-31T10:22:19;95788.72;;;15.25;100.00
71457;BME280;59263;48.160;11.752;2023-08-31T10:24:57;95782.03;;;15.22;100.00
71457;BME280;59263;48.160;11.752;2023-08-31T10:27:25;95780.31;;;15.38;100.00
71457;BME280;59263;48.160;11.752;2023-08-31T10:29:52;95774.88;;;15.47;100.00
71457;BME280;59263;48.160;11.752;2023-08-31T10:32:17;95780.25;;;15.46;100.00
71457;BME280;59263;48.160;11.752;2023-08-31T10:35:04;95776.59;;;15.55;100.00
71457;BME280;59263;48.160;11.752;2023-08-31T10:37:29;95770.13;;;15.51;100.00
71457;BME280;59263;48.160;11.752;2023-08-31T10:40:07;95777.03;;;15.44;100.00
71457;BME280;59263;48.160;11.752;2023-08-31T10:42:32;95777.63;;;15.46;100.00
71457;BME280;59263;48.160;11.752;2023-08-31T10:45:07;95771.88;;;15.36;100.00
71457;BME280;59263;48.160;11.752;2023-08-31T10:47:37;95783.63;;;15.32;100.00
71457;BME280;59263;48.160;11.752;2023-08-31T10:50:19;95777.44;;;15.33;100.00
71457;BME280;59263;48.160;11.752;2023-08-31T10:52:45;95761.44;;;15.36;100.00
71457;BME280;59263;48.160;11.752;2023-08-31T10:55:13;95779.50;;;15.37;100.00
71457;BME280;59263;48.160;11.752;2023-08-31T10:57:40;95773.94;;;15.40;100.00
71457;BME280;59263;48.160;11.752;2023-08-31T11:00:06;95772.53;;;15.53;100.00
71457;BME280;59263;48.160;11.752;2023-08-31T11:02:43;95760.28;;;15.61;100.00
71457;BME280;59263;48.160;11.752;2023-08-31T11:07:34;95758.97;;;15.57;100.00
71457;BME280;59263;48.160;11.752;2023-08-31T11:10:17;95777.63;;;15.46;100.00
71457;BME280;59263;48.160;11.752;2023-08-31T11:12:45;95772.56;;;15.30;100.00
71457;BME280;59263;48.160;11.752;2023-08-31T11:15:12;95781.38;;;15.29;100.00
71457;BME280;59263;48.160;11.752;2023-08-31T11:17:40;95795.13;;;15.14;100.00
71457;BME280;59263;48.160;11.752;2023-08-31T11:20:06;95816.44;;;14.87;100.00
71457;BME280;59263;48.160;11.752;2023-08-31T11:22:37;95824.63;;;14.75;100.00
71457;BME280;59263;48.160;11.752;2023-08-31T11:25:03;95819.19;;;14.54;100.00
71457;BME280;59263;48.160;11.752;2023-08-31T11:27:29;95831.50;;;14.60;100.00
71457;BME280;59263;48.160;11.752;2023-08-31T11:29:54;95844.84;;;14.57;100.00
71457;BME280;59263;48.160;11.752;2023-08-31T11:32:23;95836.75;;;14.36;100.00
71457;BME280;59263;48.160;11.752;2023-08-31T11:34:48;95836.88;;;14.42;100.00
71457;BME280;59263;48.160;11.752;2023-08-31T11:37:14;95848.44;;;14.48;100.00
71457;BME280;59263;48.160;11.752;2023-08-31T11:39:51;95834.63;;;14.47;100.00
71457;BME280;59263;48.160;11.752;2023-08-31T11:42:19;95840.34;;;14.51;100.00
71457;BME280;59263;48.160;11.752;2023-08-31T11:44:49;95849.13;;;14.50;100.00
71457;BME280;59263;48.160;11.752;2023-08-31T11:47:15;95849.25;;;14.48;100.00
71457;BME280;59263;48.160;11.752;2023-08-31T11:49:45;95848.44;;;14.56;100.00
71457;BME280;59263;48.160;11.752;2023-08-31T11:52:12;95858.22;;;14.62;100.00
71457;BME280;59263;48.160;11.752;2023-08-31T11:54:38;95841.25;;;14.66;100.00
71457;BME280;59263;48.160;11.752;2023-08-31T11:57:07;95823.91;;;14.90;100.00
71457;BME280;59263;48.160;11.752;2023-08-31T11:59:34;95816.31;;;15.11;100.00
71457;BME280;59263;48.160;11.752;2023-08-31T12:02:01;95808.97;;;15.15;100.00
71457;BME280;59263;48.160;11.752;2023-08-31T12:04:26;95820.13;;;15.32;100.00
71457;BME280;59263;48.160;11.752;2023-08-31T12:06:52;95826.91;;;15.41;100.00
71457;BME280;59263;48.160;11.752;2023-08-31T12:09:19;95820.06;;;15.40;100.00
71457;BME280;59263;48.160;11.752;2023-08-31T12:11:51;95816.63;;;15.70;100.00
71457;BME280;59263;48.160;11.752;2023-08-31T12:14:19;95796.34;;;15.81;100.00
71457;BME280;59263;48.160;11.752;2023-08-31T12:16:45;95803.81;;;15.84;100.00
71457;BME280;59263;48.160;11.752;2023-08-31T12:19:10;95796.94;;;15.83;100.00
71457;BME280;59263;48.160;11.752;2023-08-31T12:21:36;95815.53;;;15.88;100.00
71457;BME280;59263;48.160;11.752;2023-08-31T12:24:01;95798.16;;;15.95;100.00
71457;BME280;59263;48.160;11.752;2023-08-31T12:26:28;95796.19;;;15.97;100.00
71457;BME280;59263;48.160;11.752;2023-08-31T12:28:53;95802.81;;;15.85;100.00
71457;BME280;59263;48.160;11.752;2023-08-31T12:31:19;95789.00;;;15.99;100.00
71457;BME280;59263;48.160;11.752;2023-08-31T12:33:44;95779.81;;;16.03;100.00
71457;BME280;59263;48.160;11.752;2023-08-31T12:36:10;95797.63;;;16.00;100.00
71457;BME280;59263;48.160;11.752;2023-08-31T12:38:35;95776.56;;;16.01;100.00
71457;BME280;59263;48.160;11.752;2023-08-31T12:41:00;95783.47;;;16.32;100.00
71457;BME280;59263;48.160;11.752;2023-08-31T12:43:27;95784.97;;;16.70;100.00
71457;BME280;59263;48.160;11.752;2023-08-31T12:45:57;95787.88;;;16.76;100.00
71457;BME280;59263;48.160;11.752;2023-08-31T12:48:23;95779.47;;;16.95;100.00
71457;BME280;59263;48.160;11.752;2023-08-31T12:50:48;95760.94;;;16.75;100.00